Terminal Aerodrome Forecast
Issued by NWS Jackson, MS

Home | Current Version | Previous Version | Text Only | Print | Product List | Glossary On
Versions: 1 2 3 4 5 6 7 8 9 10 11 12 13 14 15 16 17
000
FTUS44 KJAN 291100
TAFJAN
TAF
KJAN 291122Z 2912/3012 35005KT 5SM -DZ OVC002
     FM291500 35005KT P6SM OVC004
     FM291800 35005KT P6SM OVC007
     FM292200 36005KT P6SM OVC013
     FM300500 34004KT 6SM BR OVC007=

USA.gov is the U.S. government's official web portal to all federal, state and local government web resources and services.